Time;durP1;ratioP1;P1;durP2;ratioP2;P2;SDS_P1;SDS_P2;PMS_P1;PMS_P2;Temp;Humidity;BMP_temperature;BMP_pressure;BME280_temperature;BME280_humidity;BME280_pressure;Samples;Min_cycle;Max_cycle;Signal;HPM_P1;HPM_P2
2021/12/01 00:00:09;;;;;;;0.17;0.17;;;;;;;;;;4165836;28;20084;-40
2021/12/01 00:02:13;;;;;;;0.20;0.20;;;;;;;;;;4165880;28;20494;-41
2021/12/01 00:04:14;;;;;;;0.15;0.13;;;;;;;;;;4148050;28;20061;-42
2021/12/01 00:06:15;;;;;;;0.50;0.30;;;;;;;;;;4165864;28;20068;-40
2021/12/01 00:08:16;;;;;;;0.20;0.10;;;;;;;;;;4165215;28;20435;-41
2021/12/01 00:10:20;;;;;;;0.08;0.05;;;;;;;;;;4165273;28;20061;-39
2021/12/01 00:12:21;;;;;;;0.55;0.20;;;;;;;;;;4148035;28;20054;-41
2021/12/01 00:14:22;;;;;;;0.10;0.10;;;;;;;;;;4165612;28;20053;-41
2021/12/01 00:16:23;;;;;;;1.85;0.20;;;;;;;;;;4164003;28;20053;-41
2021/12/01 00:18:24;;;;;;;0.30;0.13;;;;;;;;;;4165452;28;20065;-41
2021/12/01 00:20:26;;;;;;;0.40;0.20;;;;;;;;;;4164909;28;20099;-41
2021/12/01 00:22:27;;;;;;;0.30;0.20;;;;;;;;;;4165498;28;20064;-40
2021/12/01 00:24:28;;;;;;;1.65;0.20;;;;;;;;;;4147614;28;20112;-40
2021/12/01 00:26:30;;;;;;;0.20;0.20;;;;;;;;;;4165708;28;20062;-39
2021/12/01 00:28:31;;;;;;;0.10;0.10;;;;;;;;;;4165128;28;20073;-40
2021/12/01 00:30:33;;;;;;;0.30;0.20;;;;;;;;;;4165220;28;20049;-40
2021/12/01 00:32:35;;;;;;;0.13;0.13;;;;;;;;;;4165517;28;20057;-37
2021/12/01 00:34:36;;;;;;;0.15;0.15;;;;;;;;;;4165256;28;20099;-41
2021/12/01 00:36:37;;;;;;;0.20;0.17;;;;;;;;;;4165282;28;20057;-40
2021/12/01 00:38:38;;;;;;;0.22;0.20;;;;;;;;;;4147222;28;20100;-40
2021/12/01 00:40:40;;;;;;;0.20;0.20;;;;;;;;;;4165050;28;20054;-38
2021/12/01 00:42:41;;;;;;;0.60;0.40;;;;;;;;;;4164992;28;20383;-40
2021/12/01 00:44:47;;;;;;;0.15;0.10;;;;;;;;;;4164027;28;20493;-41
2021/12/01 00:46:56;;;;;;;0.35;0.10;;;;;;;;;;4165141;28;20111;-40
2021/12/01 00:48:57;;;;;;;0.20;0.20;;;;;;;;;;4164924;28;20053;-40
2021/12/01 00:50:59;;;;;;;0.10;0.10;;;;;;;;;;4165155;28;20076;-40
2021/12/01 00:53:05;;;;;;;0.30;0.20;;;;;;;;;;4164502;28;20354;-40
2021/12/01 00:55:07;;;;;;;0.30;0.10;;;;;;;;;;4164921;28;20391;-42
2021/12/01 00:57:08;;;;;;;0.32;0.20;;;;;;;;;;4164939;28;20111;-42
2021/12/01 00:59:10;;;;;;;0.10;0.10;;;;;;;;;;4164781;28;20103;-39
2021/12/01 01:01:11;;;;;;;0.17;0.17;;;;;;;;;;4164672;28;20489;-42
2021/12/01 01:03:12;;;;;;;0.20;0.15;;;;;;;;;;4164608;28;20107;-40
2021/12/01 01:05:13;;;;;;;0.20;0.20;;;;;;;;;;4147370;28;20092;-41
2021/12/01 01:07:15;;;;;;;0.20;0.10;;;;;;;;;;4157721;28;20053;-42
2021/12/01 01:09:16;;;;;;;0.20;0.20;;;;;;;;;;4147975;28;20569;-39
2021/12/01 01:18:17;;;;;;;0.10;0.10;;;;;;;;;;4133332;28;20557;-41
2021/12/01 01:20:18;;;;;;;0.10;0.10;;;;;;;;;;4130725;28;20110;-37
2021/12/01 01:22:22;;;;;;;0.32;0.30;;;;;;;;;;4151502;28;20137;-40
2021/12/01 01:24:24;;;;;;;0.40;0.20;;;;;;;;;;4164260;28;20061;-41
2021/12/01 01:26:25;;;;;;;0.28;0.10;;;;;;;;;;4164359;28;20061;-42
2021/12/01 01:28:28;;;;;;;0.10;0.10;;;;;;;;;;4164303;28;20406;-41
2021/12/01 01:30:30;;;;;;;0.10;0.10;;;;;;;;;;4164458;28;20049;-40
2021/12/01 01:32:34;;;;;;;0.20;0.10;;;;;;;;;;4164379;28;20395;-40
2021/12/01 01:34:35;;;;;;;0.10;0.10;;;;;;;;;;4164362;28;20084;-40
2021/12/01 01:36:36;;;;;;;0.10;0.10;;;;;;;;;;4164312;28;20053;-41
2021/12/01 01:38:38;;;;;;;0.10;0.10;;;;;;;;;;4163771;28;20177;-41
2021/12/01 01:40:40;;;;;;;0.43;0.20;;;;;;;;;;4164271;28;20346;-41
2021/12/01 01:42:41;;;;;;;0.22;0.20;;;;;;;;;;4164402;28;20061;-41
2021/12/01 01:44:42;;;;;;;0.10;0.10;;;;;;;;;;4164322;28;20053;-38
2021/12/01 01:46:43;;;;;;;0.60;0.20;;;;;;;;;;4164157;28;20555;-40
2021/12/01 01:48:54;;;;;;;0.20;0.20;;;;;;;;;;4164119;28;20072;-41
2021/12/01 01:50:56;;;;;;;0.25;0.20;;;;;;;;;;4148208;28;20066;-42
2021/12/01 01:52:57;;;;;;;0.30;0.20;;;;;;;;;;4163701;28;20057;-40
2021/12/01 01:54:58;;;;;;;0.32;0.20;;;;;;;;;;4164314;28;20053;-40
2021/12/01 01:56:59;;;;;;;0.28;0.28;;;;;;;;;;4164492;28;20057;-41
2021/12/01 01:59:02;;;;;;;0.17;0.15;;;;;;;;;;4164240;28;20069;-40
2021/12/01 02:01:07;;;;;;;0.10;0.10;;;;;;;;;;4163893;28;20378;-38
2021/12/01 02:03:11;;;;;;;0.30;0.20;;;;;;;;;;4164233;28;20386;-41
2021/12/01 02:05:12;;;;;;;0.73;0.20;;;;;;;;;;4163942;28;20495;-41
2021/12/01 02:07:13;;;;;;;0.40;0.20;;;;;;;;;;4164053;28;20061;-39
2021/12/01 02:09:18;;;;;;;0.32;0.20;;;;;;;;;;4173493;28;20110;-42
2021/12/01 02:11:20;;;;;;;0.20;0.10;;;;;;;;;;4179230;28;20061;-40
2021/12/01 02:13:22;;;;;;;0.20;0.20;;;;;;;;;;4197167;28;20057;-41
2021/12/01 02:15:23;;;;;;;0.25;0.17;;;;;;;;;;4197021;28;20102;-39
2021/12/01 02:17:24;;;;;;;0.20;0.10;;;;;;;;;;4197022;28;20087;-41
2021/12/01 02:19:26;;;;;;;0.68;0.10;;;;;;;;;;4197140;28;20053;-41
2021/12/01 02:21:28;;;;;;;0.13;0.10;;;;;;;;;;4196995;28;20151;-38
2021/12/01 02:23:30;;;;;;;0.10;0.10;;;;;;;;;;4185131;28;20497;-40
2021/12/01 02:25:31;;;;;;;0.30;0.13;;;;;;;;;;4180387;28;20102;-40
2021/12/01 02:27:32;;;;;;;0.17;0.17;;;;;;;;;;4162654;28;20510;-38
2021/12/01 02:29:34;;;;;;;0.17;0.13;;;;;;;;;;4180214;28;20061;-38
2021/12/01 02:31:36;;;;;;;0.13;0.13;;;;;;;;;;4165002;28;20061;-40
2021/12/01 02:33:37;;;;;;;0.35;0.20;;;;;;;;;;4146118;28;20053;-40
2021/12/01 02:35:40;;;;;;;0.10;0.10;;;;;;;;;;4164078;28;20080;-40
2021/12/01 02:37:41;;;;;;;0.73;0.20;;;;;;;;;;4163487;28;20062;-39
2021/12/01 02:39:42;;;;;;;0.10;0.10;;;;;;;;;;4166293;28;20049;-41
2021/12/01 02:41:45;;;;;;;0.10;0.10;;;;;;;;;;4149409;28;20057;-40
2021/12/01 02:43:47;;;;;;;0.10;0.10;;;;;;;;;;4167019;28;20084;-41
2021/12/01 02:45:53;;;;;;;0.20;0.20;;;;;;;;;;4166809;28;20383;-42
2021/12/01 02:47:54;;;;;;;0.13;0.13;;;;;;;;;;4166897;28;20139;-37
2021/12/01 02:49:55;;;;;;;0.25;0.10;;;;;;;;;;4166744;28;20116;-42
2021/12/01 02:51:56;;;;;;;0.20;0.10;;;;;;;;;;4149251;28;20054;-40
2021/12/01 02:53:58;;;;;;;0.35;0.20;;;;;;;;;;4166226;28;20058;-40
2021/12/01 02:56:05;;;;;;;0.15;0.15;;;;;;;;;;4166893;28;20115;-42
2021/12/01 02:58:06;;;;;;;0.17;0.17;;;;;;;;;;4166611;28;20058;-38
2021/12/01 03:00:08;;;;;;;0.30;0.22;;;;;;;;;;4166603;28;20060;-36
2021/12/01 03:02:10;;;;;;;0.32;0.20;;;;;;;;;;4166850;28;20062;-38
2021/12/01 03:04:12;;;;;;;0.38;0.17;;;;;;;;;;4166820;28;20057;-40
2021/12/01 03:06:13;;;;;;;0.30;0.30;;;;;;;;;;4149089;28;20058;-40
2021/12/01 03:08:16;;;;;;;0.30;0.10;;;;;;;;;;4166047;28;20493;-41
2021/12/01 03:10:17;;;;;;;0.43;0.20;;;;;;;;;;4166825;28;20046;-41
2021/12/01 03:12:18;;;;;;;0.40;0.20;;;;;;;;;;4166374;28;20493;-41
2021/12/01 03:14:20;;;;;;;0.17;0.13;;;;;;;;;;4166330;28;20054;-39
2021/12/01 03:16:22;;;;;;;0.10;0.10;;;;;;;;;;4166708;28;20065;-42
2021/12/01 03:18:23;;;;;;;0.10;0.10;;;;;;;;;;4176876;28;20052;-41
2021/12/01 03:20:25;;;;;;;0.13;0.13;;;;;;;;;;4156974;28;20054;-38
2021/12/01 03:22:26;;;;;;;0.28;0.17;;;;;;;;;;4168333;28;20061;-41
2021/12/01 03:24:32;;;;;;;0.40;0.20;;;;;;;;;;4182231;28;20053;-41
2021/12/01 03:26:34;;;;;;;0.28;0.20;;;;;;;;;;4182318;28;20060;-41
2021/12/01 03:28:36;;;;;;;0.47;0.10;;;;;;;;;;4182792;28;20053;-41
2021/12/01 03:30:37;;;;;;;0.10;0.10;;;;;;;;;;4182657;28;20060;-41
2021/12/01 03:32:40;;;;;;;0.28;0.20;;;;;;;;;;4164858;28;20062;-41
2021/12/01 03:34:42;;;;;;;0.00;0.00;;;;;;;;;;4182669;28;20114;-41
2021/12/01 03:36:43;;;;;;;0.10;0.10;;;;;;;;;;4182723;28;20053;-40
2021/12/01 03:38:45;;;;;;;0.15;0.15;;;;;;;;;;4182005;28;20057;-41
2021/12/01 03:40:46;;;;;;;0.20;0.20;;;;;;;;;;4182793;28;20053;-38
2021/12/01 03:42:48;;;;;;;0.10;0.10;;;;;;;;;;4182598;28;20053;-40
2021/12/01 03:44:49;;;;;;;0.10;0.10;;;;;;;;;;4182600;28;20457;-41
2021/12/01 03:46:51;;;;;;;0.10;0.10;;;;;;;;;;4182823;28;20060;-37
2021/12/01 03:48:52;;;;;;;0.20;0.20;;;;;;;;;;4182402;28;20546;-40
2021/12/01 03:50:54;;;;;;;0.13;0.13;;;;;;;;;;4181040;28;20053;-41
2021/12/01 03:52:55;;;;;;;0.22;0.10;;;;;;;;;;4182088;28;20333;-41
2021/12/01 03:54:57;;;;;;;0.20;0.10;;;;;;;;;;4182368;28;20061;-37
2021/12/01 03:56:58;;;;;;;0.20;0.10;;;;;;;;;;4182468;28;20083;-41
2021/12/01 03:59:01;;;;;;;0.55;0.20;;;;;;;;;;4182189;28;20056;-40
2021/12/01 04:01:02;;;;;;;0.10;0.10;;;;;;;;;;4164506;28;20491;-41
2021/12/01 04:03:03;;;;;;;0.20;0.20;;;;;;;;;;4182174;28;20049;-41
2021/12/01 04:05:05;;;;;;;0.20;0.20;;;;;;;;;;4182259;28;20448;-40
2021/12/01 04:07:06;;;;;;;0.20;0.20;;;;;;;;;;4182220;28;20057;-41
2021/12/01 04:09:08;;;;;;;0.20;0.10;;;;;;;;;;4163892;28;20057;-39
2021/12/01 04:11:09;;;;;;;0.30;0.10;;;;;;;;;;4182294;28;20057;-38
2021/12/01 04:13:10;;;;;;;0.30;0.13;;;;;;;;;;4181905;28;20068;-40
2021/12/01 04:15:14;;;;;;;0.10;0.10;;;;;;;;;;4182099;28;20428;-41
2021/12/01 04:17:15;;;;;;;0.13;0.13;;;;;;;;;;4180947;28;20057;-40
2021/12/01 04:19:17;;;;;;;0.10;0.10;;;;;;;;;;4181887;28;20083;-40
2021/12/01 04:21:20;;;;;;;0.35;0.17;;;;;;;;;;4164305;28;20049;-40
2021/12/01 04:23:21;;;;;;;0.20;0.13;;;;;;;;;;4181240;28;20130;-41
2021/12/01 04:25:23;;;;;;;0.32;0.17;;;;;;;;;;4182229;28;20065;-38
2021/12/01 04:27:24;;;;;;;0.10;0.10;;;;;;;;;;4181721;28;20582;-41
2021/12/01 04:29:27;;;;;;;0.30;0.20;;;;;;;;;;4148332;28;20104;-41
2021/12/01 04:31:29;;;;;;;0.10;0.10;;;;;;;;;;4181814;28;20473;-41
2021/12/01 04:33:30;;;;;;;0.22;0.20;;;;;;;;;;4181679;28;20065;-40
2021/12/01 04:35:33;;;;;;;0.13;0.10;;;;;;;;;;4164063;28;20509;-40
2021/12/01 04:37:35;;;;;;;0.20;0.17;;;;;;;;;;4164004;28;20058;-37
2021/12/01 04:39:37;;;;;;;0.20;0.17;;;;;;;;;;4181589;28;20057;-41
2021/12/01 04:41:41;;;;;;;0.28;0.20;;;;;;;;;;4181886;28;20057;-40
2021/12/01 04:43:42;;;;;;;0.20;0.15;;;;;;;;;;4181740;28;20118;-39
2021/12/01 04:45:45;;;;;;;0.20;0.20;;;;;;;;;;4181585;28;20327;-42
2021/12/01 04:47:49;;;;;;;0.47;0.10;;;;;;;;;;4163673;28;20057;-41
2021/12/01 04:49:52;;;;;;;0.20;0.20;;;;;;;;;;4181662;28;20053;-39
2021/12/01 04:51:55;;;;;;;0.10;0.10;;;;;;;;;;4181456;28;20482;-40
2021/12/01 04:53:59;;;;;;;0.45;0.25;;;;;;;;;;4180838;28;20061;-42
2021/12/01 04:56:00;;;;;;;0.20;0.10;;;;;;;;;;4181575;28;20091;-37
2021/12/01 04:58:02;;;;;;;0.45;0.30;;;;;;;;;;4163450;28;20117;-41
2021/12/01 05:00:04;;;;;;;0.20;0.20;;;;;;;;;;4181421;28;20095;-41
2021/12/01 05:02:05;;;;;;;0.10;0.10;;;;;;;;;;4163204;28;20057;-40
2021/12/01 05:04:08;;;;;;;0.15;0.15;;;;;;;;;;4181373;28;20049;-41
2021/12/01 05:06:12;;;;;;;0.10;0.10;;;;;;;;;;4181269;28;20053;-40
2021/12/01 05:08:13;;;;;;;1.85;0.43;;;;;;;;;;4180720;28;20049;-40
2021/12/01 05:10:14;;;;;;;0.10;0.10;;;;;;;;;;4180036;28;20107;-41
2021/12/01 05:12:16;;;;;;;0.25;0.25;;;;;;;;;;4181162;28;20405;-42
2021/12/01 05:14:18;;;;;;;1.38;0.10;;;;;;;;;;4181062;28;20052;-40
2021/12/01 05:16:20;;;;;;;0.20;0.10;;;;;;;;;;4181319;28;20052;-41
2021/12/01 05:18:21;;;;;;;0.20;0.20;;;;;;;;;;4180942;28;20065;-39
2021/12/01 05:20:22;;;;;;;0.10;0.10;;;;;;;;;;4181162;28;20084;-37
2021/12/01 05:22:25;;;;;;;0.10;0.10;;;;;;;;;;4181158;28;20052;-40
2021/12/01 05:24:26;;;;;;;0.10;0.10;;;;;;;;;;4180536;28;20053;-39
2021/12/01 05:26:27;;;;;;;0.10;0.10;;;;;;;;;;4181185;28;20053;-40
2021/12/01 05:28:29;;;;;;;0.45;0.10;;;;;;;;;;4180867;28;20499;-39
2021/12/01 05:30:30;;;;;;;1.00;0.28;;;;;;;;;;4181184;28;20061;-40
2021/12/01 05:32:31;;;;;;;0.40;0.20;;;;;;;;;;4180861;28;20496;-41
2021/12/01 05:34:33;;;;;;;0.40;0.20;;;;;;;;;;4180694;28;20056;-41
2021/12/01 05:36:34;;;;;;;0.20;0.20;;;;;;;;;;4180820;28;20060;-39
2021/12/01 05:38:35;;;;;;;0.98;0.30;;;;;;;;;;4162159;28;20057;-41
2021/12/01 05:40:37;;;;;;;0.38;0.30;;;;;;;;;;4180481;28;20049;-42
2021/12/01 05:42:38;;;;;;;0.65;0.25;;;;;;;;;;4180588;28;20079;-41
2021/12/01 05:44:39;;;;;;;0.57;0.20;;;;;;;;;;4180549;28;20382;-39
2021/12/01 05:46:41;;;;;;;0.52;0.30;;;;;;;;;;4180456;28;20064;-40
2021/12/01 05:48:42;;;;;;;1.20;0.30;;;;;;;;;;4180573;28;20106;-38
2021/12/01 05:50:43;;;;;;;1.10;0.57;;;;;;;;;;4180377;28;20049;-40
2021/12/01 05:52:44;;;;;;;0.60;0.38;;;;;;;;;;4179881;28;20049;-40
2021/12/01 05:54:50;;;;;;;0.75;0.45;;;;;;;;;;4180626;28;20061;-40
2021/12/01 05:56:51;;;;;;;0.32;0.30;;;;;;;;;;4180694;28;20061;-41
2021/12/01 05:58:52;;;;;;;1.70;0.30;;;;;;;;;;4180430;28;20099;-38
2021/12/01 06:00:54;;;;;;;1.17;0.30;;;;;;;;;;4179011;28;20401;-39
2021/12/01 06:02:55;;;;;;;0.80;0.30;;;;;;;;;;4173556;28;20052;-41
2021/12/01 06:04:56;;;;;;;1.73;0.40;;;;;;;;;;4180093;28;20378;-42
2021/12/01 06:06:57;;;;;;;1.20;0.50;;;;;;;;;;4180131;28;20049;-41
2021/12/01 06:08:58;;;;;;;1.65;0.38;;;;;;;;;;4179493;28;20430;-40
2021/12/01 06:11:00;;;;;;;1.08;0.30;;;;;;;;;;4180220;28;20053;-42
2021/12/01 06:13:01;;;;;;;0.52;0.30;;;;;;;;;;4180302;28;20061;-41
2021/12/01 06:15:03;;;;;;;1.98;0.55;;;;;;;;;;4183517;28;20449;-41
2021/12/01 06:17:04;;;;;;;2.55;0.50;;;;;;;;;;4183793;28;20053;-42
2021/12/01 06:19:05;;;;;;;0.80;0.32;;;;;;;;;;4165607;28;20111;-41
2021/12/01 06:21:06;;;;;;;1.50;0.30;;;;;;;;;;4183426;28;20053;-43
2021/12/01 06:23:08;;;;;;;0.50;0.30;;;;;;;;;;4182773;28;20405;-41
2021/12/01 06:25:09;;;;;;;1.85;0.57;;;;;;;;;;4183375;28;20115;-42
2021/12/01 06:27:11;;;;;;;0.93;0.32;;;;;;;;;;4183365;28;20065;-42
2021/12/01 06:29:12;;;;;;;0.77;0.43;;;;;;;;;;4183121;28;20511;-41
2021/12/01 06:31:14;;;;;;;0.65;0.30;;;;;;;;;;4183253;28;20072;-40
2021/12/01 06:33:15;;;;;;;0.82;0.40;;;;;;;;;;4183144;28;20451;-41
2021/12/01 06:35:16;;;;;;;1.60;0.50;;;;;;;;;;4170806;28;20061;-41
2021/12/01 06:37:18;;;;;;;0.52;0.30;;;;;;;;;;4167048;28;20387;-39
2021/12/01 06:39:19;;;;;;;0.98;0.57;;;;;;;;;;4170262;28;20098;-42
2021/12/01 06:41:20;;;;;;;1.58;0.50;;;;;;;;;;4169013;28;20099;-41
2021/12/01 06:43:21;;;;;;;1.08;0.57;;;;;;;;;;4161343;28;20057;-41
2021/12/01 06:45:23;;;;;;;1.17;0.40;;;;;;;;;;4182924;28;20102;-40
2021/12/01 06:47:24;;;;;;;1.67;0.40;;;;;;;;;;4161588;28;20054;-40
2021/12/01 06:49:25;;;;;;;1.60;0.50;;;;;;;;;;4175833;28;20052;-39
2021/12/01 06:51:26;;;;;;;1.17;0.40;;;;;;;;;;4169761;28;20448;-41
2021/12/01 06:53:29;;;;;;;2.20;0.73;;;;;;;;;;4160511;28;20088;-41
2021/12/01 06:55:31;;;;;;;1.05;0.60;;;;;;;;;;4179793;28;20060;-36
2021/12/01 06:57:33;;;;;;;0.93;0.40;;;;;;;;;;4177563;28;20119;-41
2021/12/01 06:59:34;;;;;;;0.73;0.60;;;;;;;;;;4181017;28;20060;-40
2021/12/01 07:01:35;;;;;;;0.88;0.65;;;;;;;;;;4157773;28;20050;-41
2021/12/01 07:03:36;;;;;;;0.40;0.32;;;;;;;;;;4180918;28;20065;-40
2021/12/01 07:05:37;;;;;;;0.40;0.38;;;;;;;;;;4174255;28;20080;-39
2021/12/01 07:07:39;;;;;;;0.70;0.40;;;;;;;;;;4175577;28;20061;-41
2021/12/01 07:09:41;;;;;;;0.65;0.43;;;;;;;;;;4161373;28;20466;-40
2021/12/01 07:11:42;;;;;;;1.77;0.50;;;;;;;;;;4176795;28;20045;-41
2021/12/01 07:13:43;;;;;;;0.57;0.43;;;;;;;;;;4174357;28;20398;-39
2021/12/01 07:15:45;;;;;;;1.05;0.52;;;;;;;;;;4174913;28;20420;-39
2021/12/01 07:17:46;;;;;;;2.25;0.50;;;;;;;;;;4174144;28;20057;-40
2021/12/01 07:19:48;;;;;;;0.50;0.40;;;;;;;;;;4182414;28;20056;-41
2021/12/01 07:21:49;;;;;;;1.23;0.40;;;;;;;;;;4170552;28;20057;-41
2021/12/01 07:23:50;;;;;;;1.45;0.77;;;;;;;;;;4169858;28;20098;-41
2021/12/01 07:25:51;;;;;;;2.08;0.50;;;;;;;;;;4168504;28;20504;-40
2021/12/01 07:27:52;;;;;;;1.33;0.52;;;;;;;;;;4170798;28;20041;-38
2021/12/01 07:29:54;;;;;;;1.73;0.57;;;;;;;;;;4152984;28;20062;-38
2021/12/01 07:31:55;;;;;;;2.40;0.80;;;;;;;;;;4177682;28;20045;-40
2021/12/01 07:33:56;;;;;;;1.13;0.63;;;;;;;;;;4166180;28;20049;-42
2021/12/01 07:35:57;;;;;;;2.75;0.82;;;;;;;;;;4174044;28;20060;-41
2021/12/01 07:37:58;;;;;;;3.00;1.00;;;;;;;;;;4171976;28;20061;-40
2021/12/01 07:40:00;;;;;;;2.60;0.80;;;;;;;;;;4176233;28;20922;-38
2021/12/01 07:42:01;;;;;;;2.83;0.88;;;;;;;;;;4173611;28;20093;-39
2021/12/01 07:44:03;;;;;;;3.08;0.57;;;;;;;;;;4163678;28;20109;-41
2021/12/01 07:46:04;;;;;;;1.65;0.70;;;;;;;;;;4160459;28;20053;-37
2021/12/01 07:48:05;;;;;;;3.60;1.20;;;;;;;;;;4163617;28;20064;-39
2021/12/01 07:50:07;;;;;;;1.15;0.70;;;;;;;;;;4165268;28;20068;-39
2021/12/01 07:52:10;;;;;;;1.35;0.80;;;;;;;;;;4163104;28;20485;-39
2021/12/01 07:54:11;;;;;;;1.83;0.68;;;;;;;;;;4151192;28;20058;-43
2021/12/01 07:56:12;;;;;;;2.85;0.70;;;;;;;;;;4169052;28;20067;-40
2021/12/01 07:58:13;;;;;;;1.55;0.80;;;;;;;;;;4173484;28;20053;-40
2021/12/01 08:00:15;;;;;;;3.10;0.90;;;;;;;;;;4175898;28;20063;-39
2021/12/01 08:02:16;;;;;;;1.63;1.13;;;;;;;;;;4173162;28;20149;-37
2021/12/01 08:04:17;;;;;;;1.65;0.75;;;;;;;;;;4172128;28;20390;-38
2021/12/01 08:06:18;;;;;;;1.77;0.75;;;;;;;;;;4158593;28;20072;-37
2021/12/01 08:08:20;;;;;;;3.05;1.00;;;;;;;;;;4145342;28;20069;-31
2021/12/01 08:10:21;;;;;;;1.33;0.73;;;;;;;;;;4171393;28;20111;-32
2021/12/01 08:12:22;;;;;;;2.30;0.85;;;;;;;;;;4169290;28;20559;-31
2021/12/01 08:14:23;;;;;;;1.08;0.63;;;;;;;;;;4159702;28;20122;-30
2021/12/01 08:16:25;;;;;;;2.35;0.80;;;;;;;;;;4161608;28;20061;-30
2021/12/01 08:18:26;;;;;;;1.40;0.90;;;;;;;;;;4171679;28;20076;-32
2021/12/01 08:20:27;;;;;;;1.55;0.80;;;;;;;;;;4157392;28;20126;-31
2021/12/01 08:22:29;;;;;;;2.67;0.70;;;;;;;;;;4156824;28;20044;-31
2021/12/01 08:24:32;;;;;;;1.30;0.65;;;;;;;;;;4161851;28;20199;-31
2021/12/01 08:26:33;;;;;;;1.20;0.65;;;;;;;;;;4165820;28;20057;-31
2021/12/01 08:28:34;;;;;;;2.00;0.80;;;;;;;;;;4170036;28;20115;-31
2021/12/01 08:30:35;;;;;;;1.17;0.85;;;;;;;;;;4155421;28;20197;-30
2021/12/01 08:32:37;;;;;;;2.70;0.80;;;;;;;;;;4165425;28;20053;-31
2021/12/01 08:34:38;;;;;;;3.00;0.90;;;;;;;;;;4162356;28;20061;-30
2021/12/01 08:36:39;;;;;;;2.10;0.93;;;;;;;;;;4162667;28;20126;-31
2021/12/01 08:38:41;;;;;;;2.25;0.63;;;;;;;;;;4162664;28;20061;-31
2021/12/01 08:40:42;;;;;;;1.17;0.77;;;;;;;;;;4160154;28;21403;-29
2021/12/01 08:42:45;;;;;;;1.85;0.80;;;;;;;;;;4156605;28;20045;-30
2021/12/01 08:44:47;;;;;;;1.35;0.65;;;;;;;;;;4164649;28;20206;-30
2021/12/01 08:46:49;;;;;;;2.90;1.00;;;;;;;;;;4158930;28;20408;-30
2021/12/01 08:48:50;;;;;;;3.40;0.80;;;;;;;;;;4162143;28;20049;-31
2021/12/01 08:50:51;;;;;;;1.13;0.60;;;;;;;;;;4161314;28;20287;-32
2021/12/01 08:52:52;;;;;;;1.60;0.98;;;;;;;;;;4160595;28;20056;-31
2021/12/01 08:54:54;;;;;;;2.45;0.82;;;;;;;;;;4158376;28;20057;-39
2021/12/01 08:56:57;;;;;;;1.98;0.88;;;;;;;;;;4154104;28;20097;-31
2021/12/01 08:58:58;;;;;;;2.72;0.68;;;;;;;;;;4157691;28;20414;-30
2021/12/01 09:01:00;;;;;;;1.98;0.65;;;;;;;;;;4159402;28;20053;-31
2021/12/01 09:03:01;;;;;;;3.95;0.75;;;;;;;;;;4161207;28;20053;-30
2021/12/01 09:05:03;;;;;;;2.67;0.90;;;;;;;;;;4159946;28;20061;-30
2021/12/01 09:07:04;;;;;;;1.83;0.90;;;;;;;;;;4162863;28;20428;-31
2021/12/01 09:09:05;;;;;;;1.85;0.77;;;;;;;;;;4163698;28;20446;-32
2021/12/01 09:11:07;;;;;;;1.63;0.80;;;;;;;;;;4168869;28;20053;-32
2021/12/01 09:13:09;;;;;;;4.90;1.40;;;;;;;;;;4167342;28;20103;-31
2021/12/01 09:15:10;;;;;;;4.35;1.17;;;;;;;;;;4166520;28;20509;-30
2021/12/01 09:17:12;;;;;;;1.25;0.70;;;;;;;;;;4159470;28;20057;-31
2021/12/01 09:19:13;;;;;;;1.40;0.88;;;;;;;;;;4156849;28;20064;-31
2021/12/01 09:21:15;;;;;;;1.90;0.80;;;;;;;;;;4160115;28;20534;-32
2021/12/01 09:23:17;;;;;;;4.22;0.93;;;;;;;;;;4152633;28;20429;-31
2021/12/01 09:25:19;;;;;;;1.67;0.82;;;;;;;;;;4163290;28;20076;-31
2021/12/01 09:27:20;;;;;;;1.23;0.82;;;;;;;;;;4155980;28;20049;-31
2021/12/01 09:29:21;;;;;;;1.92;0.70;;;;;;;;;;4156467;28;20198;-30
2021/12/01 09:31:22;;;;;;;3.70;1.25;;;;;;;;;;4162470;28;20061;-31
2021/12/01 09:33:24;;;;;;;1.58;0.90;;;;;;;;;;4160135;28;20095;-31
2021/12/01 09:35:25;;;;;;;1.48;1.00;;;;;;;;;;4154393;28;20068;-30
2021/12/01 09:37:27;;;;;;;1.58;0.70;;;;;;;;;;4163396;28;20111;-31
2021/12/01 09:39:28;;;;;;;2.08;1.08;;;;;;;;;;4166490;28;20060;-31
2021/12/01 09:41:29;;;;;;;2.50;1.00;;;;;;;;;;4158009;28;20053;-30
2021/12/01 09:43:31;;;;;;;4.25;1.10;;;;;;;;;;4166896;28;20057;-31
2021/12/01 09:45:33;;;;;;;2.03;1.02;;;;;;;;;;4137536;28;20050;-31
2021/12/01 09:47:34;;;;;;;1.85;0.90;;;;;;;;;;4160989;28;20082;-31
2021/12/01 09:49:36;;;;;;;3.45;1.08;;;;;;;;;;4161015;28;20727;-31
2021/12/01 09:51:37;;;;;;;2.03;1.08;;;;;;;;;;4159454;28;20057;-32
2021/12/01 09:53:39;;;;;;;4.25;1.02;;;;;;;;;;4158186;28;20053;-31
2021/12/01 09:55:41;;;;;;;3.25;1.10;;;;;;;;;;4157747;28;20057;-31
2021/12/01 09:57:58;;;;;;;2.78;1.00;;;;;;;;;;4155240;28;20053;-31
2021/12/01 10:00:04;;;;;;;2.20;0.95;;;;;;;;;;4166485;28;20060;-31
2021/12/01 10:02:06;;;;;;;2.30;0.95;;;;;;;;;;4165589;28;20567;-30
2021/12/01 10:04:07;;;;;;;3.55;0.90;;;;;;;;;;4164129;28;20053;-30
2021/12/01 10:06:11;;;;;;;2.25;0.80;;;;;;;;;;4157870;28;20057;-32
2021/12/01 10:08:39;;;;;;;2.13;1.08;;;;;;;;;;4158605;28;20056;-31
2021/12/01 10:10:41;;;;;;;3.47;1.45;;;;;;;;;;4159740;28;20178;-30
2021/12/01 10:12:47;;;;;;;3.28;1.00;;;;;;;;;;4167343;28;20445;-31
2021/12/01 10:14:51;;;;;;;2.85;1.73;;;;;;;;;;4173463;28;20141;-32
2021/12/01 10:16:54;;;;;;;2.03;1.05;;;;;;;;;;4168608;28;20102;-32
2021/12/01 10:19:02;;;;;;;5.30;1.30;;;;;;;;;;4164482;28;20061;-32
2021/12/01 10:21:18;;;;;;;2.88;1.27;;;;;;;;;;4167264;28;20049;-32
2021/12/01 10:23:19;;;;;;;2.20;1.10;;;;;;;;;;4169414;28;20053;-32
2021/12/01 10:25:28;;;;;;;3.33;1.23;;;;;;;;;;4164871;28;20067;-32
2021/12/01 10:27:37;;;;;;;2.45;1.17;;;;;;;;;;4171379;28;20143;-32
2021/12/01 10:29:48;;;;;;;2.10;1.05;;;;;;;;;;4159673;28;20053;-32
2021/12/01 10:31:53;;;;;;;2.33;1.27;;;;;;;;;;4166899;28;20045;-32
2021/12/01 10:33:54;;;;;;;1.88;0.90;;;;;;;;;;4174563;28;20057;-34
2021/12/01 10:36:00;;;;;;;1.45;0.95;;;;;;;;;;4168936;28;20045;-34
2021/12/01 10:38:01;;;;;;;2.42;1.10;;;;;;;;;;4168260;28;20338;-33
2021/12/01 10:40:04;;;;;;;1.63;0.95;;;;;;;;;;4168295;28;20060;-33
2021/12/01 10:42:08;;;;;;;2.08;1.17;;;;;;;;;;4170491;28;20111;-32
2021/12/01 10:44:15;;;;;;;1.23;0.70;;;;;;;;;;4170822;28;20060;-33
2021/12/01 10:46:18;;;;;;;1.88;0.95;;;;;;;;;;4166508;28;20136;-32
2021/12/01 10:48:22;;;;;;;1.45;0.80;;;;;;;;;;4169124;28;20060;-33
2021/12/01 10:50:28;;;;;;;2.08;0.77;;;;;;;;;;4173988;28;20134;-33
2021/12/01 10:52:36;;;;;;;1.42;0.93;;;;;;;;;;4170080;28;20123;-32
2021/12/01 10:54:37;;;;;;;1.30;0.90;;;;;;;;;;4168856;28;20060;-33
2021/12/01 10:56:39;;;;;;;1.80;0.93;;;;;;;;;;4167664;28;20048;-33
2021/12/01 10:58:41;;;;;;;1.60;0.88;;;;;;;;;;4167110;28;20343;-32
2021/12/01 11:00:48;;;;;;;4.28;0.93;;;;;;;;;;4175767;28;20393;-32
2021/12/01 11:02:50;;;;;;;1.38;0.80;;;;;;;;;;4167702;28;20073;-32
2021/12/01 11:04:52;;;;;;;1.15;0.88;;;;;;;;;;4170434;28;20053;-32
2021/12/01 11:06:53;;;;;;;2.03;0.90;;;;;;;;;;4167042;28;20485;-32
2021/12/01 11:08:57;;;;;;;2.38;1.08;;;;;;;;;;4179703;28;20048;-32
2021/12/01 11:11:03;;;;;;;1.10;0.90;;;;;;;;;;4169327;28;20103;-34
2021/12/01 11:13:05;;;;;;;2.15;0.95;;;;;;;;;;4160152;28;20299;-30
2021/12/01 11:15:40;;;;;;;2.25;1.00;;;;;;;;;;4172625;28;20061;-30
2021/12/01 11:17:42;;;;;;;2.05;1.20;;;;;;;;;;4141295;28;20064;-31
2021/12/01 11:19:43;;;;;;;1.58;1.05;;;;;;;;;;4166729;28;20071;-31
2021/12/01 11:21:44;;;;;;;2.35;1.17;;;;;;;;;;4167475;28;20053;-33
2021/12/01 11:23:48;;;;;;;1.63;0.80;;;;;;;;;;4171793;28;20107;-30
2021/12/01 11:26:15;;;;;;;2.42;1.17;;;;;;;;;;4156210;28;20049;-32
2021/12/01 11:28:18;;;;;;;2.40;1.30;;;;;;;;;;4168900;28;20060;-32
2021/12/01 11:30:19;;;;;;;2.55;1.30;;;;;;;;;;4169731;28;20057;-30
2021/12/01 11:32:21;;;;;;;2.70;1.10;;;;;;;;;;4177272;28;20052;-33
2021/12/01 11:34:22;;;;;;;2.40;1.13;;;;;;;;;;4168895;28;20395;-32
2021/12/01 11:36:26;;;;;;;1.92;1.00;;;;;;;;;;4176981;28;20049;-32
2021/12/01 11:38:27;;;;;;;1.88;1.25;;;;;;;;;;4174931;28;20065;-32
2021/12/01 11:40:30;;;;;;;3.00;0.95;;;;;;;;;;4176184;28;20053;-32
2021/12/01 11:42:31;;;;;;;1.63;1.20;;;;;;;;;;4179211;28;20057;-31
2021/12/01 11:44:33;;;;;;;2.47;1.13;;;;;;;;;;4169792;28;20058;-32
2021/12/01 11:46:34;;;;;;;2.33;1.20;;;;;;;;;;4168213;28;20053;-32
2021/12/01 11:48:42;;;;;;;2.08;0.82;;;;;;;;;;4168828;28;20053;-31
2021/12/01 11:51:09;;;;;;;2.20;0.95;;;;;;;;;;4157719;28;20084;-41
2021/12/01 11:53:20;;;;;;;4.68;1.10;;;;;;;;;;4166981;28;20410;-43
2021/12/01 11:55:46;;;;;;;1.88;1.00;;;;;;;;;;4156190;28;20095;-42
2021/12/01 11:57:47;;;;;;;3.10;1.20;;;;;;;;;;4173592;28;20053;-42
2021/12/01 11:59:49;;;;;;;3.10;1.35;;;;;;;;;;4169709;28;20057;-39
2021/12/01 12:02:21;;;;;;;1.92;1.15;;;;;;;;;;4169926;28;20563;-38
2021/12/01 12:04:26;;;;;;;1.65;1.00;;;;;;;;;;4152571;28;20181;-39
2021/12/01 12:06:31;;;;;;;1.63;1.00;;;;;;;;;;4161523;28;20568;-42
2021/12/01 12:08:56;;;;;;;1.92;0.95;;;;;;;;;;4162038;28;20057;-40
2021/12/01 12:11:35;;;;;;;1.67;1.23;;;;;;;;;;4163241;28;20050;-39
2021/12/01 12:14:04;;;;;;;1.98;1.15;;;;;;;;;;4168972;28;20064;-41
2021/12/01 12:16:22;;;;;;;2.47;1.05;;;;;;;;;;4167448;28;20220;-39
2021/12/01 12:18:41;;;;;;;4.47;1.65;;;;;;;;;;4175239;28;20405;-40
2021/12/01 12:20:52;;;;;;;1.38;0.93;;;;;;;;;;4157099;28;20374;-39
2021/12/01 12:22:55;;;;;;;3.33;1.40;;;;;;;;;;4159049;28;20180;-41